sensor_id;sensor_type;location;lat;lon;timestamp;pressure;altitude;pressure_sealevel;temperature;humidity
19797;BME280;10058;57.654;12.044;2023-12-20T00:01:15;99404.47;;;6.87;100.00
19797;BME280;10058;57.654;12.044;2023-12-20T00:03:40;99409.56;;;6.81;100.00
19797;BME280;10058;57.654;12.044;2023-12-20T00:06:05;99402.53;;;6.79;100.00
19797;BME280;10058;57.654;12.044;2023-12-20T00:08:31;99397.44;;;6.86;100.00
19797;BME280;10058;57.654;12.044;2023-12-20T00:10:56;99403.66;;;6.90;100.00
19797;BME280;10058;57.654;12.044;2023-12-20T00:13:21;99397.75;;;7.02;100.00
19797;BME280;10058;57.654;12.044;2023-12-20T00:15:47;99408.38;;;7.08;100.00
19797;BME280;10058;57.654;12.044;2023-12-20T00:18:12;99401.38;;;7.08;100.00
19797;BME280;10058;57.654;12.044;2023-12-20T00:20:37;99392.56;;;7.05;100.00
19797;BME280;10058;57.654;12.044;2023-12-20T00:23:03;99394.72;;;6.82;100.00
19797;BME280;10058;57.654;12.044;2023-12-20T00:25:28;99387.72;;;6.82;100.00
19797;BME280;10058;57.654;12.044;2023-12-20T00:27:53;99390.22;;;6.76;100.00
19797;BME280;10058;57.654;12.044;2023-12-20T00:30:18;99386.69;;;6.74;100.00
19797;BME280;10058;57.654;12.044;2023-12-20T00:32:44;99384.66;;;6.61;100.00
19797;BME280;10058;57.654;12.044;2023-12-20T00:35:12;99358.59;;;6.70;100.00
19797;BME280;10058;57.654;12.044;2023-12-20T00:37:38;99366.44;;;6.69;100.00
19797;BME280;10058;57.654;12.044;2023-12-20T00:40:03;99367.31;;;6.69;100.00
19797;BME280;10058;57.654;12.044;2023-12-20T00:42:29;99364.66;;;6.68;100.00
19797;BME280;10058;57.654;12.044;2023-12-20T00:44:54;99344.63;;;6.71;100.00
19797;BME280;10058;57.654;12.044;2023-12-20T00:47:20;99351.63;;;6.72;100.00
19797;BME280;10058;57.654;12.044;2023-12-20T00:49:45;99347.88;;;6.61;100.00
19797;BME280;10058;57.654;12.044;2023-12-20T00:52:10;99349.00;;;6.72;100.00
19797;BME280;10058;57.654;12.044;2023-12-20T00:54:35;99331.66;;;6.80;100.00
19797;BME280;10058;57.654;12.044;2023-12-20T00:57:01;99335.88;;;6.72;100.00
19797;BME280;10058;57.654;12.044;2023-12-20T00:59:26;99335.94;;;6.77;100.00
19797;BME280;10058;57.654;12.044;2023-12-20T01:01:51;99340.28;;;6.73;100.00
19797;BME280;10058;57.654;12.044;2023-12-20T01:04:16;99343.59;;;6.64;100.00
19797;BME280;10058;57.654;12.044;2023-12-20T01:06:42;99335.09;;;6.78;100.00
19797;BME280;10058;57.654;12.044;2023-12-20T01:09:07;99288.34;;;6.57;100.00
19797;BME280;10058;57.654;12.044;2023-12-20T01:11:32;99330.63;;;6.72;100.00
19797;BME280;10058;57.654;12.044;2023-12-20T01:13:58;99328.56;;;6.56;100.00
19797;BME280;10058;57.654;12.044;2023-12-20T01:16:23;99325.00;;;6.54;100.00
19797;BME280;10058;57.654;12.044;2023-12-20T01:18:48;99309.56;;;6.69;100.00
19797;BME280;10058;57.654;12.044;2023-12-20T01:21:14;99312.31;;;6.75;100.00
19797;BME280;10058;57.654;12.044;2023-12-20T01:23:39;99298.53;;;6.87;100.00
19797;BME280;10058;57.654;12.044;2023-12-20T01:26:05;99302.69;;;6.77;100.00
19797;BME280;10058;57.654;12.044;2023-12-20T01:28:30;99294.84;;;6.79;100.00
19797;BME280;10058;57.654;12.044;2023-12-20T01:30:57;99294.22;;;6.90;100.00
19797;BME280;10058;57.654;12.044;2023-12-20T01:33:22;99282.09;;;6.98;100.00
19797;BME280;10058;57.654;12.044;2023-12-20T01:35:47;99273.25;;;6.93;100.00
19797;BME280;10058;57.654;12.044;2023-12-20T01:38:13;99274.06;;;6.89;100.00
19797;BME280;10058;57.654;12.044;2023-12-20T01:40:38;99255.44;;;6.77;100.00
19797;BME280;10058;57.654;12.044;2023-12-20T01:43:08;99250.16;;;6.74;100.00
19797;BME280;10058;57.654;12.044;2023-12-20T01:45:34;99246.94;;;6.90;100.00
19797;BME280;10058;57.654;12.044;2023-12-20T01:47:59;99248.66;;;6.88;100.00
19797;BME280;10058;57.654;12.044;2023-12-20T01:50:25;99244.47;;;6.99;100.00
19797;BME280;10058;57.654;12.044;2023-12-20T01:52:52;99178.28;;;6.68;100.00
19797;BME280;10058;57.654;12.044;2023-12-20T01:55:21;99218.03;;;6.89;100.00
19797;BME280;10058;57.654;12.044;2023-12-20T01:57:47;99210.28;;;6.96;100.00
19797;BME280;10058;57.654;12.044;2023-12-20T02:00:13;99207.00;;;7.11;100.00
19797;BME280;10058;57.654;12.044;2023-12-20T02:02:40;99213.03;;;7.04;100.00
19797;BME280;10058;57.654;12.044;2023-12-20T02:05:06;99211.41;;;7.12;100.00
19797;BME280;10058;57.654;12.044;2023-12-20T02:07:32;99215.69;;;7.06;100.00
19797;BME280;10058;57.654;12.044;2023-12-20T02:09:58;99203.47;;;7.08;100.00
19797;BME280;10058;57.654;12.044;2023-12-20T02:12:23;99200.00;;;7.09;100.00
19797;BME280;10058;57.654;12.044;2023-12-20T02:14:49;99197.66;;;7.28;100.00
19797;BME280;10058;57.654;12.044;2023-12-20T02:17:15;99193.69;;;6.99;100.00
19797;BME280;10058;57.654;12.044;2023-12-20T02:19:41;99182.41;;;7.05;100.00
19797;BME280;10058;57.654;12.044;2023-12-20T02:22:10;99186.97;;;7.18;100.00
19797;BME280;10058;57.654;12.044;2023-12-20T02:24:36;99184.50;;;7.27;100.00
19797;BME280;10058;57.654;12.044;2023-12-20T02:27:01;99173.91;;;7.21;100.00
19797;BME280;10058;57.654;12.044;2023-12-20T02:29:27;99176.22;;;7.03;100.00
19797;BME280;10058;57.654;12.044;2023-12-20T02:31:52;99161.22;;;6.95;100.00
19797;BME280;10058;57.654;12.044;2023-12-20T02:34:17;99157.81;;;7.01;100.00
19797;BME280;10058;57.654;12.044;2023-12-20T02:36:43;99154.00;;;6.82;100.00
19797;BME280;10058;57.654;12.044;2023-12-20T02:39:08;99149.13;;;7.04;100.00
19797;BME280;10058;57.654;12.044;2023-12-20T02:41:33;99147.47;;;7.12;100.00
19797;BME280;10058;57.654;12.044;2023-12-20T02:43:58;99136.22;;;7.20;100.00
19797;BME280;10058;57.654;12.044;2023-12-20T02:46:24;99134.25;;;7.06;100.00
19797;BME280;10058;57.654;12.044;2023-12-20T02:48:49;99140.66;;;7.23;100.00
19797;BME280;10058;57.654;12.044;2023-12-20T02:51:15;99131.97;;;7.27;100.00
19797;BME280;10058;57.654;12.044;2023-12-20T02:53:40;99129.16;;;7.16;100.00
19797;BME280;10058;57.654;12.044;2023-12-20T02:56:05;99117.03;;;7.27;100.00
19797;BME280;10058;57.654;12.044;2023-12-20T02:58:31;99112.69;;;7.26;100.00
19797;BME280;10058;57.654;12.044;2023-12-20T03:00:56;99102.16;;;7.25;100.00
19797;BME280;10058;57.654;12.044;2023-12-20T03:03:21;99101.16;;;7.18;100.00
19797;BME280;10058;57.654;12.044;2023-12-20T03:05:47;99096.81;;;7.20;100.00
19797;BME280;10058;57.654;12.044;2023-12-20T03:08:12;99095.06;;;7.21;100.00
19797;BME280;10058;57.654;12.044;2023-12-20T03:10:37;99089.78;;;7.18;100.00
19797;BME280;10058;57.654;12.044;2023-12-20T03:13:03;99087.28;;;7.28;100.00
19797;BME280;10058;57.654;12.044;2023-12-20T03:15:28;99090.03;;;7.36;100.00
19797;BME280;10058;57.654;12.044;2023-12-20T03:17:53;99082.84;;;7.23;100.00
19797;BME280;10058;57.654;12.044;2023-12-20T03:20:18;99082.84;;;7.23;100.00
19797;BME280;10058;57.654;12.044;2023-12-20T03:22:44;99080.03;;;7.12;100.00
19797;BME280;10058;57.654;12.044;2023-12-20T03:25:09;99077.63;;;7.26;100.00
19797;BME280;10058;57.654;12.044;2023-12-20T03:27:37;99047.69;;;7.15;100.00
19797;BME280;10058;57.654;12.044;2023-12-20T03:30:03;99067.13;;;7.26;100.00
19797;BME280;10058;57.654;12.044;2023-12-20T03:32:28;99068.59;;;7.06;100.00
19797;BME280;10058;57.654;12.044;2023-12-20T03:34:53;99070.72;;;7.34;100.00
19797;BME280;10058;57.654;12.044;2023-12-20T03:37:18;99082.44;;;6.95;100.00
19797;BME280;10058;57.654;12.044;2023-12-20T03:39:44;99065.94;;;7.04;100.00
19797;BME280;10058;57.654;12.044;2023-12-20T03:42:09;99072.16;;;7.11;100.00
19797;BME280;10058;57.654;12.044;2023-12-20T03:44:34;99074.00;;;7.18;100.00
19797;BME280;10058;57.654;12.044;2023-12-20T03:46:59;99074.78;;;7.11;100.00
19797;BME280;10058;57.654;12.044;2023-12-20T03:49:25;99068.31;;;6.87;100.00
19797;BME280;10058;57.654;12.044;2023-12-20T03:51:50;99059.75;;;7.01;100.00
19797;BME280;10058;57.654;12.044;2023-12-20T03:54:15;99057.25;;;7.11;100.00
19797;BME280;10058;57.654;12.044;2023-12-20T03:56:40;99044.94;;;7.06;100.00
19797;BME280;10058;57.654;12.044;2023-12-20T03:59:06;99051.22;;;7.17;100.00
19797;BME280;10058;57.654;12.044;2023-12-20T04:01:31;99047.44;;;6.96;100.00
19797;BME280;10058;57.654;12.044;2023-12-20T04:03:56;99047.56;;;7.06;100.00
19797;BME280;10058;57.654;12.044;2023-12-20T04:06:22;99031.88;;;7.12;100.00
19797;BME280;10058;57.654;12.044;2023-12-20T04:08:47;99022.44;;;7.27;100.00
19797;BME280;10058;57.654;12.044;2023-12-20T04:11:12;99011.00;;;7.21;100.00
19797;BME280;10058;57.654;12.044;2023-12-20T04:13:37;99011.13;;;7.33;100.00
19797;BME280;10058;57.654;12.044;2023-12-20T04:16:03;99009.22;;;7.20;100.00
19797;BME280;10058;57.654;12.044;2023-12-20T04:18:28;99016.13;;;7.13;100.00
19797;BME280;10058;57.654;12.044;2023-12-20T04:20:53;99015.28;;;7.14;100.00
19797;BME280;10058;57.654;12.044;2023-12-20T04:23:19;98993.44;;;7.17;100.00
19797;BME280;10058;57.654;12.044;2023-12-20T04:25:44;98996.88;;;7.13;100.00
19797;BME280;10058;57.654;12.044;2023-12-20T04:28:09;98991.59;;;7.10;100.00
19797;BME280;10058;57.654;12.044;2023-12-20T04:30:35;99010.84;;;7.09;100.00
19797;BME280;10058;57.654;12.044;2023-12-20T04:33:00;99010.88;;;7.12;100.00
19797;BME280;10058;57.654;12.044;2023-12-20T04:35:25;99000.13;;;6.93;100.00
19797;BME280;10058;57.654;12.044;2023-12-20T04:37:51;98990.03;;;7.24;100.00
19797;BME280;10058;57.654;12.044;2023-12-20T04:40:16;99000.34;;;7.12;100.00
19797;BME280;10058;57.654;12.044;2023-12-20T04:42:42;98995.22;;;7.21;100.00
19797;BME280;10058;57.654;12.044;2023-12-20T04:45:07;98982.63;;;6.95;100.00
19797;BME280;10058;57.654;12.044;2023-12-20T04:47:33;98976.63;;;7.04;100.00
19797;BME280;10058;57.654;12.044;2023-12-20T04:49:58;98975.75;;;7.04;100.00
19797;BME280;10058;57.654;12.044;2023-12-20T04:52:24;98986.44;;;7.19;100.00
19797;BME280;10058;57.654;12.044;2023-12-20T04:54:49;98977.75;;;7.23;100.00
19797;BME280;10058;57.654;12.044;2023-12-20T04:57:14;98975.25;;;7.35;100.00
19797;BME280;10058;57.654;12.044;2023-12-20T04:59:39;98963.66;;;7.18;100.00
19797;BME280;10058;57.654;12.044;2023-12-20T05:02:06;98965.38;;;7.16;100.00
19797;BME280;10058;57.654;12.044;2023-12-20T05:04:31;98980.19;;;7.08;100.00
19797;BME280;10058;57.654;12.044;2023-12-20T05:06:56;98972.44;;;7.20;100.00
19797;BME280;10058;57.654;12.044;2023-12-20T05:09:22;98963.81;;;7.30;100.00
19797;BME280;10058;57.654;12.044;2023-12-20T05:11:47;98968.03;;;7.17;100.00
19797;BME280;10058;57.654;12.044;2023-12-20T05:14:12;98962.03;;;7.26;100.00
19797;BME280;10058;57.654;12.044;2023-12-20T05:16:37;98962.03;;;7.29;100.00
19797;BME280;10058;57.654;12.044;2023-12-20T05:19:03;98950.75;;;7.38;100.00
19797;BME280;10058;57.654;12.044;2023-12-20T05:21:31;98947.88;;;7.16;100.00
19797;BME280;10058;57.654;12.044;2023-12-20T05:23:57;98938.34;;;7.24;100.00
19797;BME280;10058;57.654;12.044;2023-12-20T05:26:22;98946.19;;;7.20;100.00
19797;BME280;10058;57.654;12.044;2023-12-20T05:28:47;98946.09;;;7.14;100.00
19797;BME280;10058;57.654;12.044;2023-12-20T05:31:13;98937.50;;;7.27;100.00
19797;BME280;10058;57.654;12.044;2023-12-20T05:33:38;98918.22;;;7.25;100.00
19797;BME280;10058;57.654;12.044;2023-12-20T05:36:04;98926.88;;;7.18;100.00
19797;BME280;10058;57.654;12.044;2023-12-20T05:38:29;98914.75;;;7.29;100.00
19797;BME280;10058;57.654;12.044;2023-12-20T05:40:54;98911.13;;;7.18;100.00
19797;BME280;10058;57.654;12.044;2023-12-20T05:43:19;98924.44;;;7.34;100.00
19797;BME280;10058;57.654;12.044;2023-12-20T05:45:45;98912.97;;;7.25;100.00
19797;BME280;10058;57.654;12.044;2023-12-20T05:48:10;98908.63;;;7.31;100.00
19797;BME280;10058;57.654;12.044;2023-12-20T05:50:35;98906.78;;;7.21;100.00
19797;BME280;10058;57.654;12.044;2023-12-20T05:53:02;98902.56;;;7.37;100.00
19797;BME280;10058;57.654;12.044;2023-12-20T05:55:27;98897.34;;;7.40;100.00
19797;BME280;10058;57.654;12.044;2023-12-20T05:57:52;98905.94;;;7.24;100.00
19797;BME280;10058;57.654;12.044;2023-12-20T06:00:18;98888.28;;;7.12;100.00
19797;BME280;10058;57.654;12.044;2023-12-20T06:02:43;98895.19;;;7.03;100.00
19797;BME280;10058;57.654;12.044;2023-12-20T06:05:09;98891.59;;;6.94;100.00
19797;BME280;10058;57.654;12.044;2023-12-20T06:07:34;98891.78;;;7.13;100.00
19797;BME280;10058;57.654;12.044;2023-12-20T06:10:00;98896.09;;;7.05;100.00
19797;BME280;10058;57.654;12.044;2023-12-20T06:12:25;98846.06;;;6.95;100.00
19797;BME280;10058;57.654;12.044;2023-12-20T06:14:52;98896.16;;;7.12;100.00
19797;BME280;10058;57.654;12.044;2023-12-20T06:17:18;98898.72;;;7.05;100.00
19797;BME280;10058;57.654;12.044;2023-12-20T06:19:43;98892.84;;;7.25;100.00
19797;BME280;10058;57.654;12.044;2023-12-20T06:22:10;98892.66;;;7.12;100.00
19797;BME280;10058;57.654;12.044;2023-12-20T06:24:35;98890.09;;;7.18;100.00
19797;BME280;10058;57.654;12.044;2023-12-20T06:27:01;98894.41;;;7.13;100.00
19797;BME280;10058;57.654;12.044;2023-12-20T06:29:26;98891.75;;;7.07;100.00
19797;BME280;10058;57.654;12.044;2023-12-20T06:31:51;98882.88;;;6.98;100.00
19797;BME280;10058;57.654;12.044;2023-12-20T06:34:17;98865.53;;;7.13;100.00
19797;BME280;10058;57.654;12.044;2023-12-20T06:36:43;98874.13;;;6.99;100.00
19797;BME280;10058;57.654;12.044;2023-12-20T06:39:09;98862.78;;;7.02;100.00
19797;BME280;10058;57.654;12.044;2023-12-20T06:41:34;98878.69;;;7.16;100.00
19797;BME280;10058;57.654;12.044;2023-12-20T06:43:59;98871.69;;;7.15;100.00
19797;BME280;10058;57.654;12.044;2023-12-20T06:46:24;98873.41;;;7.13;100.00
19797;BME280;10058;57.654;12.044;2023-12-20T06:48:50;98870.78;;;7.13;100.00
19797;BME280;10058;57.654;12.044;2023-12-20T06:51:16;98862.03;;;7.14;100.00
19797;BME280;10058;57.654;12.044;2023-12-20T06:53:42;98853.03;;;6.89;100.00
19797;BME280;10058;57.654;12.044;2023-12-20T06:56:07;98852.22;;;6.97;100.00
19797;BME280;10058;57.654;12.044;2023-12-20T06:58:33;98854.69;;;6.82;100.00
19797;BME280;10058;57.654;12.044;2023-12-20T07:00:59;98844.09;;;6.76;100.00
19797;BME280;10058;57.654;12.044;2023-12-20T07:03:24;98844.09;;;6.76;100.00
19797;BME280;10058;57.654;12.044;2023-12-20T07:05:49;98839.78;;;6.80;100.00
19797;BME280;10058;57.654;12.044;2023-12-20T07:08:15;98842.50;;;6.87;100.00
19797;BME280;10058;57.654;12.044;2023-12-20T07:10:41;98844.25;;;6.87;100.00
19797;BME280;10058;57.654;12.044;2023-12-20T07:13:06;98844.22;;;6.85;100.00
19797;BME280;10058;57.654;12.044;2023-12-20T07:15:32;98832.94;;;6.95;100.00
19797;BME280;10058;57.654;12.044;2023-12-20T07:17:58;98837.00;;;6.66;100.00
19797;BME280;10058;57.654;12.044;2023-12-20T07:20:25;98830.25;;;6.88;100.00
19797;BME280;10058;57.654;12.044;2023-12-20T07:22:50;98830.75;;;6.56;100.00
19797;BME280;10058;57.654;12.044;2023-12-20T07:25:16;98833.63;;;6.79;100.00
19797;BME280;10058;57.654;12.044;2023-12-20T07:27:41;98832.03;;;6.90;100.00
19797;BME280;10058;57.654;12.044;2023-12-20T07:30:06;98842.38;;;6.78;100.00
19797;BME280;10058;57.654;12.044;2023-12-20T07:32:32;98841.66;;;6.90;100.00
19797;BME280;10058;57.654;12.044;2023-12-20T07:34:57;98834.44;;;6.72;100.00
19797;BME280;10058;57.654;12.044;2023-12-20T07:37:23;98835.38;;;6.79;100.00
19797;BME280;10058;57.654;12.044;2023-12-20T07:39:48;98830.97;;;6.73;100.00
19797;BME280;10058;57.654;12.044;2023-12-20T07:42:13;98831.88;;;6.75;100.00
19797;BME280;10058;57.654;12.044;2023-12-20T07:44:39;98845.72;;;6.65;100.00
19797;BME280;10058;57.654;12.044;2023-12-20T07:47:04;98835.34;;;6.74;100.00
19797;BME280;10058;57.654;12.044;2023-12-20T07:49:30;98842.38;;;6.78;100.00
19797;BME280;10058;57.654;12.044;2023-12-20T07:51:55;98844.09;;;6.73;100.00
19797;BME280;10058;57.654;12.044;2023-12-20T07:54:21;98834.34;;;6.64;100.00
19797;BME280;10058;57.654;12.044;2023-12-20T07:56:46;98832.03;;;6.93;100.00
19797;BME280;10058;57.654;12.044;2023-12-20T07:59:12;98810.81;;;6.72;100.00
19797;BME280;10058;57.654;12.044;2023-12-20T08:01:37;98823.13;;;6.79;100.00
19797;BME280;10058;57.654;12.044;2023-12-20T08:04:03;98831.94;;;6.84;100.00
19797;BME280;10058;57.654;12.044;2023-12-20T08:06:28;98832.16;;;7.03;100.00
19797;BME280;10058;57.654;12.044;2023-12-20T08:08:53;98821.63;;;6.99;100.00
19797;BME280;10058;57.654;12.044;2023-12-20T08:11:18;98831.25;;;6.99;100.00
19797;BME280;10058;57.654;12.044;2023-12-20T08:13:44;98818.69;;;6.71;100.00
19797;BME280;10058;57.654;12.044;2023-12-20T08:16:09;98823.13;;;6.79;100.00
19797;BME280;10058;57.654;12.044;2023-12-20T08:18:35;98836.38;;;6.88;100.00
19797;BME280;10058;57.654;12.044;2023-12-20T08:21:00;98809.22;;;6.86;100.00
19797;BME280;10058;57.654;12.044;2023-12-20T08:23:26;98830.44;;;7.05;100.00
19797;BME280;10058;57.654;12.044;2023-12-20T08:25:52;98825.09;;;6.98;100.00
19797;BME280;10058;57.654;12.044;2023-12-20T08:28:17;98837.28;;;6.90;100.00
19797;BME280;10058;57.654;12.044;2023-12-20T08:30:42;98832.13;;;6.99;100.00
19797;BME280;10058;57.654;12.044;2023-12-20T08:33:08;98826.97;;;7.09;100.00
19797;BME280;10058;57.654;12.044;2023-12-20T08:35:38;98837.41;;;7.03;100.00
19797;BME280;10058;57.654;12.044;2023-12-20T08:38:03;98842.78;;;7.15;100.00
19797;BME280;10058;57.654;12.044;2023-12-20T08:40:29;98837.34;;;6.96;100.00
19797;BME280;10058;57.654;12.044;2023-12-20T08:42:55;98837.28;;;6.93;100.00
19797;BME280;10058;57.654;12.044;2023-12-20T08:45:20;98833.09;;;7.11;100.00
19797;BME280;10058;57.654;12.044;2023-12-20T08:47:45;98831.41;;;7.16;100.00
19797;BME280;10058;57.654;12.044;2023-12-20T08:50:11;98826.88;;;6.99;100.00
19797;BME280;10058;57.654;12.044;2023-12-20T08:52:37;98818.25;;;7.13;100.00
19797;BME280;10058;57.654;12.044;2023-12-20T08:55:02;98808.78;;;7.27;100.00
19797;BME280;10058;57.654;12.044;2023-12-20T08:57:27;98820.84;;;7.11;100.00
19797;BME280;10058;57.654;12.044;2023-12-20T08:59:53;98808.81;;;7.33;100.00
19797;BME280;10058;57.654;12.044;2023-12-20T09:02:18;98783.19;;;7.11;100.00
19797;BME280;10058;57.654;12.044;2023-12-20T09:04:43;98809.63;;;7.26;100.00
19797;BME280;10058;57.654;12.044;2023-12-20T09:07:22;98811.38;;;7.24;100.00
19797;BME280;10058;57.654;12.044;2023-12-20T09:09:48;98807.88;;;7.26;100.00
19797;BME280;10058;57.654;12.044;2023-12-20T09:12:13;98800.78;;;7.18;100.00
19797;BME280;10058;57.654;12.044;2023-12-20T09:14:38;98798.06;;;7.10;100.00
19797;BME280;10058;57.654;12.044;2023-12-20T09:17:04;98797.25;;;7.16;100.00
19797;BME280;10058;57.654;12.044;2023-12-20T09:19:29;98777.91;;;7.05;100.00
19797;BME280;10058;57.654;12.044;2023-12-20T09:21:55;98800.88;;;7.27;100.00
19797;BME280;10058;57.654;12.044;2023-12-20T09:24:20;98786.06;;;7.35;100.00
19797;BME280;10058;57.654;12.044;2023-12-20T09:26:45;98776.44;;;7.37;100.00
19797;BME280;10058;57.654;12.044;2023-12-20T09:29:10;98773.78;;;7.34;100.00
19797;BME280;10058;57.654;12.044;2023-12-20T09:31:40;98768.50;;;7.32;100.00
19797;BME280;10058;57.654;12.044;2023-12-20T09:34:05;98786.91;;;7.34;100.00
19797;BME280;10058;57.654;12.044;2023-12-20T09:36:31;98776.47;;;7.40;100.00
19797;BME280;10058;57.654;12.044;2023-12-20T09:39:07;98769.53;;;7.51;100.00
19797;BME280;10058;57.654;12.044;2023-12-20T09:41:37;98766.75;;;7.31;100.00
19797;BME280;10058;57.654;12.044;2023-12-20T09:44:08;98769.34;;;7.27;100.00
19797;BME280;10058;57.654;12.044;2023-12-20T09:46:34;98723.66;;;7.13;100.00
19797;BME280;10058;57.654;12.044;2023-12-20T09:49:02;98776.34;;;7.28;100.00
19797;BME280;10058;57.654;12.044;2023-12-20T09:51:28;98765.97;;;7.45;100.00
19797;BME280;10058;57.654;12.044;2023-12-20T09:53:54;98761.47;;;7.30;100.00
19797;BME280;10058;57.654;12.044;2023-12-20T09:56:21;98760.66;;;7.36;100.00
19797;BME280;10058;57.654;12.044;2023-12-20T09:58:46;98774.78;;;7.51;100.00
19797;BME280;10058;57.654;12.044;2023-12-20T10:01:12;98781.81;;;7.52;100.00
19797;BME280;10058;57.654;12.044;2023-12-20T10:03:39;98762.41;;;7.35;100.00
19797;BME280;10058;57.654;12.044;2023-12-20T10:06:05;98762.28;;;7.20;100.00
19797;BME280;10058;57.654;12.044;2023-12-20T10:08:31;98758.03;;;7.37;100.00
19797;BME280;10058;57.654;12.044;2023-12-20T10:10:57;98762.38;;;7.32;100.00
19797;BME280;10058;57.654;12.044;2023-12-20T10:13:27;98746.56;;;7.26;100.00
19797;BME280;10058;57.654;12.044;2023-12-20T10:15:55;98748.34;;;7.27;100.00
19797;BME280;10058;57.654;12.044;2023-12-20T10:18:20;98751.84;;;7.32;100.00
19797;BME280;10058;57.654;12.044;2023-12-20T10:20:46;98749.34;;;7.44;100.00
19797;BME280;10058;57.654;12.044;2023-12-20T10:23:11;98749.97;;;7.16;100.00
19797;BME280;10058;57.654;12.044;2023-12-20T10:25:39;98734.22;;;7.16;100.00
19797;BME280;10058;57.654;12.044;2023-12-20T10:28:15;98747.56;;;7.45;100.00
19797;BME280;10058;57.654;12.044;2023-12-20T10:30:44;98736.19;;;7.41;100.00
19797;BME280;10058;57.654;12.044;2023-12-20T10:33:10;98734.38;;;7.34;100.00
19797;BME280;10058;57.654;12.044;2023-12-20T10:35:37;98690.34;;;7.03;100.00
19797;BME280;10058;57.654;12.044;2023-12-20T10:38:06;98729.09;;;7.34;100.00
19797;BME280;10058;57.654;12.044;2023-12-20T10:40:35;98730.03;;;7.39;100.00
19797;BME280;10058;57.654;12.044;2023-12-20T10:43:04;98723.00;;;7.37;100.00
19797;BME280;10058;57.654;12.044;2023-12-20T10:45:30;98722.94;;;7.26;100.00
19797;BME280;10058;57.654;12.044;2023-12-20T10:47:56;98711.59;;;7.33;100.00
19797;BME280;10058;57.654;12.044;2023-12-20T10:50:22;98716.00;;;7.39;100.00
19797;BME280;10058;57.654;12.044;2023-12-20T10:52:49;98664.06;;;7.03;100.00
19797;BME280;10058;57.654;12.044;2023-12-20T10:55:20;98704.53;;;7.24;100.00
19797;BME280;10058;57.654;12.044;2023-12-20T10:57:46;98719.28;;;7.09;100.00
19797;BME280;10058;57.654;12.044;2023-12-20T11:00:17;98661.34;;;6.93;100.00
19797;BME280;10058;57.654;12.044;2023-12-20T11:02:43;98712.34;;;7.18;100.00
19797;BME280;10058;57.654;12.044;2023-12-20T11:07:56;98706.28;;;7.30;100.00
19797;BME280;10058;57.654;12.044;2023-12-20T11:10:40;98663.22;;;7.05;100.00
19797;BME280;10058;57.654;12.044;2023-12-20T11:13:22;98596.53;;;6.83;100.00
19797;BME280;10058;57.654;12.044;2023-12-20T11:15:49;98698.53;;;7.44;100.00
19797;BME280;10058;57.654;12.044;2023-12-20T11:18:15;98699.16;;;7.14;100.00
19797;BME280;10058;57.654;12.044;2023-12-20T11:20:41;98692.09;;;7.04;100.00
19797;BME280;10058;57.654;12.044;2023-12-20T11:23:08;98670.41;;;7.33;100.00
19797;BME280;10058;57.654;12.044;2023-12-20T11:25:47;98659.88;;;7.26;100.00
19797;BME280;10058;57.654;12.044;2023-12-20T11:28:13;98691.38;;;7.24;100.00
19797;BME280;10058;57.654;12.044;2023-12-20T11:30:56;98684.47;;;7.39;100.00
19797;BME280;10058;57.654;12.044;2023-12-20T11:33:23;98688.88;;;7.41;100.00
19797;BME280;10058;57.654;12.044;2023-12-20T11:35:49;98681.00;;;7.43;100.00
19797;BME280;10058;57.654;12.044;2023-12-20T11:38:14;98674.00;;;7.48;100.00
19797;BME280;10058;57.654;12.044;2023-12-20T11:40:41;98648.66;;;7.54;100.00
19797;BME280;10058;57.654;12.044;2023-12-20T11:43:07;98673.22;;;7.59;100.00
19797;BME280;10058;57.654;12.044;2023-12-20T11:45:33;98660.25;;;7.99;100.00
19797;BME280;10058;57.654;12.044;2023-12-20T11:48:00;98668.22;;;8.17;100.00
19797;BME280;10058;57.654;12.044;2023-12-20T11:50:27;98666.47;;;8.22;100.00
19797;BME280;10058;57.654;12.044;2023-12-20T11:52:54;98668.28;;;8.29;100.00
19797;BME280;10058;57.654;12.044;2023-12-20T11:55:21;98669.06;;;8.15;100.00
19797;BME280;10058;57.654;12.044;2023-12-20T11:57:46;98675.31;;;8.33;100.00
19797;BME280;10058;57.654;12.044;2023-12-20T12:00:13;98668.34;;;8.46;100.00
19797;BME280;10058;57.654;12.044;2023-12-20T12:02:38;98659.44;;;8.15;100.00
19797;BME280;10058;57.654;12.044;2023-12-20T12:05:04;98653.31;;;8.21;100.00
19797;BME280;10058;57.654;12.044;2023-12-20T12:07:33;98627.75;;;7.85;100.00
19797;BME280;10058;57.654;12.044;2023-12-20T12:09:59;98647.13;;;8.02;100.00
19797;BME280;10058;57.654;12.044;2023-12-20T12:12:24;98655.88;;;7.96;100.00
19797;BME280;10058;57.654;12.044;2023-12-20T12:14:52;98647.03;;;7.84;100.00
19797;BME280;10058;57.654;12.044;2023-12-20T12:17:18;98647.09;;;7.96;100.00
19797;BME280;10058;57.654;12.044;2023-12-20T12:19:43;98648.81;;;7.88;100.00
19797;BME280;10058;57.654;12.044;2023-12-20T12:22:15;98646.28;;;8.17;100.00
19797;BME280;10058;57.654;12.044;2023-12-20T12:24:45;98640.19;;;8.28;100.00
19797;BME280;10058;57.654;12.044;2023-12-20T12:27:12;98634.91;;;8.13;100.00
19797;BME280;10058;57.654;12.044;2023-12-20T12:29:38;98639.22;;;8.00;100.00
19797;BME280;10058;57.654;12.044;2023-12-20T12:32:08;98633.97;;;8.05;100.00
19797;BME280;10058;57.654;12.044;2023-12-20T12:34:34;98639.19;;;7.93;100.00
19797;BME280;10058;57.654;12.044;2023-12-20T12:37:00;98627.81;;;8.00;100.00
19797;BME280;10058;57.654;12.044;2023-12-20T12:39:25;98624.28;;;7.92;100.00
19797;BME280;10058;57.654;12.044;2023-12-20T12:41:50;98629.50;;;7.83;100.00
19797;BME280;10058;57.654;12.044;2023-12-20T12:44:16;98613.75;;;7.86;100.00
19797;BME280;10058;57.654;12.044;2023-12-20T12:46:43;98617.09;;;7.51;100.00